Time;durP1;ratioP1;P1;durP2;ratioP2;P2;SDS_P1;SDS_P2;PMS_P1;PMS_P2;Temp;Humidity;BMP_temperature;BMP_pressure;BME280_temperature;BME280_humidity;BME280_pressure;Samples;Min_cycle;Max_cycle;Signal;HPM_P1;HPM_P2
2020/12/05 00:01:22;;;;;;;26.83;13.63;;;-0.80;99.90;;;;;;5014230;28;20060;-75
2020/12/05 00:03:47;;;;;;;28.17;15.07;;;-0.90;99.90;;;;;;5031941;28;20030;-75
2020/12/05 00:06:13;;;;;;;23.58;13.10;;;-0.90;99.90;;;;;;5013856;28;20025;-75
2020/12/05 00:08:38;;;;;;;25.23;13.27;;;-0.90;99.90;;;;;;5031930;28;20030;-75
2020/12/05 00:11:04;;;;;;;24.27;13.50;;;-0.90;99.90;;;;;;5031653;28;20025;-75
2020/12/05 00:13:29;;;;;;;22.85;12.70;;;-0.90;99.90;;;;;;5031627;28;20441;-75
2020/12/05 00:15:55;;;;;;;23.00;12.55;;;-0.90;99.90;;;;;;5031628;28;20080;-75
2020/12/05 00:18:21;;;;;;;23.75;13.68;;;-0.90;99.90;;;;;;5013901;28;20117;-75
2020/12/05 00:20:47;;;;;;;24.10;12.82;;;-0.80;99.90;;;;;;5031431;28;20128;-75
2020/12/05 00:23:12;;;;;;;24.58;13.23;;;-0.80;99.90;;;;;;5013636;28;20065;-75
2020/12/05 00:25:39;;;;;;;20.38;12.48;;;-0.80;99.90;;;;;;5031309;28;20426;-75
2020/12/05 00:28:05;;;;;;;23.85;12.38;;;-0.80;99.90;;;;;;5013670;28;20071;-75
2020/12/05 00:30:30;;;;;;;23.67;13.25;;;-0.80;99.90;;;;;;5013467;28;20057;-76
2020/12/05 00:33:03;;;;;;;22.92;12.02;;;-0.70;99.90;;;;;;5031783;28;20086;-75
2020/12/05 00:35:29;;;;;;;23.92;13.40;;;-0.70;99.90;;;;;;5031034;28;20490;-75
2020/12/05 00:37:55;;;;;;;26.77;14.60;;;-0.70;99.90;;;;;;5013368;28;20082;-75
2020/12/05 00:40:22;;;;;;;25.30;14.02;;;-0.80;99.90;;;;;;5031067;28;20026;-75
2020/12/05 00:42:48;;;;;;;21.63;13.20;;;-0.80;99.90;;;;;;5030988;28;20574;-75
2020/12/05 00:45:14;;;;;;;24.17;12.93;;;-0.80;99.90;;;;;;5030948;28;20108;-75
2020/12/05 00:47:40;;;;;;;26.45;13.25;;;-0.80;99.90;;;;;;5013252;28;20055;-75
2020/12/05 00:50:05;;;;;;;22.75;11.95;;;-0.80;99.90;;;;;;5013296;28;20535;-75
2020/12/05 00:52:31;;;;;;;20.73;11.45;;;-0.90;99.90;;;;;;5030989;28;20041;-75
2020/12/05 00:54:57;;;;;;;26.30;12.85;;;-0.90;99.90;;;;;;5029963;28;20055;-75
2020/12/05 00:57:22;;;;;;;23.13;11.90;;;-0.90;99.90;;;;;;5012990;28;20025;-75
2020/12/05 00:59:48;;;;;;;23.95;12.43;;;-0.80;99.90;;;;;;5013127;28;20021;-75
2020/12/05 01:02:13;;;;;;;21.83;11.60;;;-0.80;99.90;;;;;;5012841;28;20030;-75
2020/12/05 01:04:39;;;;;;;22.55;12.75;;;-0.80;99.90;;;;;;5012715;28;20033;-75
2020/12/05 01:07:04;;;;;;;21.27;12.57;;;-0.80;99.90;;;;;;5030630;28;20032;-75
2020/12/05 01:09:30;;;;;;;22.45;11.98;;;-0.80;99.90;;;;;;5012868;28;20025;-75
2020/12/05 01:11:55;;;;;;;24.13;12.32;;;-0.80;99.90;;;;;;5030476;28;20021;-75
2020/12/05 01:14:21;;;;;;;36.03;17.33;;;-0.80;99.90;;;;;;5030416;28;20029;-75
2020/12/05 01:16:46;;;;;;;29.65;14.85;;;-0.70;99.90;;;;;;5030765;28;20037;-75
2020/12/05 01:19:12;;;;;;;24.38;12.48;;;-0.70;99.90;;;;;;5012592;28;20487;-75
2020/12/05 01:21:38;;;;;;;18.60;10.45;;;-0.60;99.90;;;;;;5030183;28;20025;-75
2020/12/05 01:24:03;;;;;;;23.38;10.93;;;-0.50;99.90;;;;;;5030202;28;20041;-75
2020/12/05 01:26:29;;;;;;;16.88;8.73;;;-0.30;99.90;;;;;;5030006;28;20021;-75
2020/12/05 01:28:55;;;;;;;23.02;10.98;;;-0.10;99.90;;;;;;5012348;28;20028;-75
2020/12/05 01:31:20;;;;;;;29.20;10.13;;;0.20;99.90;;;;;;5012440;28;20367;-75
2020/12/05 01:33:46;;;;;;;44.53;10.98;;;0.50;99.90;;;;;;5012384;28;20080;-75
2020/12/05 01:36:11;;;;;;;65.10;15.57;;;0.90;99.90;;;;;;5029854;28;20029;-75
2020/12/05 01:38:37;;;;;;;83.75;17.88;;;1.20;99.90;;;;;;5030036;28;20033;-75
2020/12/05 01:41:03;;;;;;;68.53;16.35;;;1.50;99.90;;;;;;5012745;28;20084;-75
2020/12/05 01:43:32;;;;;;;61.03;14.05;;;1.80;99.90;;;;;;5030463;28;20034;-75
2020/12/05 01:46:00;;;;;;;44.38;12.75;;;2.10;99.90;;;;;;5029754;28;20064;-75
2020/12/05 01:48:27;;;;;;;36.55;11.13;;;2.30;99.90;;;;;;5012606;28;20072;-75
2020/12/05 01:50:53;;;;;;;27.55;8.18;;;2.50;99.90;;;;;;5012124;28;20025;-76
2020/12/05 01:53:19;;;;;;;27.05;7.38;;;2.70;99.90;;;;;;5029840;28;20075;-75
2020/12/05 01:55:46;;;;;;;18.48;6.38;;;2.90;99.90;;;;;;5048287;23;20053;-76
2020/12/05 01:58:13;;;;;;;18.55;6.45;;;3.00;99.90;;;;;;5031602;28;20021;-76
2020/12/05 02:00:39;;;;;;;13.30;6.05;;;3.10;99.90;;;;;;5049562;28;20020;-76
2020/12/05 02:03:06;;;;;;;20.40;5.90;;;3.20;99.90;;;;;;5031612;28;20021;-76
2020/12/05 02:05:57;;;;;;;11.88;5.43;;;3.20;99.90;;;;;;5031267;28;20551;-76
2020/12/05 02:08:48;;;;;;;11.63;4.25;;;3.30;99.90;;;;;;5049718;28;20462;-76
2020/12/05 02:11:17;;;;;;;12.02;4.25;;;3.40;99.90;;;;;;5049557;28;20032;-77
2020/12/05 02:13:47;;;;;;;13.57;5.07;;;3.50;99.90;;;;;;5049642;28;20390;-76
2020/12/05 02:16:13;;;;;;;9.40;4.25;;;3.60;99.90;;;;;;5050177;28;20056;-77
2020/12/05 02:18:40;;;;;;;7.85;3.78;;;3.60;99.90;;;;;;5049565;28;20103;-77
2020/12/05 02:21:09;;;;;;;6.82;3.08;;;3.70;99.90;;;;;;5031452;28;20029;-76
2020/12/05 02:23:35;;;;;;;7.13;3.30;;;3.70;99.90;;;;;;5049497;28;20025;-77
2020/12/05 02:26:06;;;;;;;7.38;2.92;;;3.80;99.90;;;;;;5049090;28;20138;-76
2020/12/05 02:28:32;;;;;;;5.47;3.05;;;3.80;99.90;;;;;;5031267;28;20025;-76
2020/12/05 02:30:58;;;;;;;6.32;3.17;;;3.80;99.90;;;;;;5049047;28;20025;-76
2020/12/05 02:33:24;;;;;;;5.80;3.05;;;3.80;99.90;;;;;;5031224;28;20493;-76
2020/12/05 02:35:50;;;;;;;6.22;3.03;;;3.80;99.90;;;;;;5049135;28;20033;-76
2020/12/05 02:38:33;;;;;;;3.60;2.35;;;3.80;99.90;;;;;;5049403;28;20082;-76
2020/12/05 02:40:59;;;;;;;4.38;2.35;;;3.90;99.90;;;;;;5049431;28;20112;-76
2020/12/05 02:43:26;;;;;;;5.70;2.78;;;4.00;99.90;;;;;;5031082;28;20068;-76
2020/12/05 02:45:53;;;;;;;5.68;2.40;;;4.00;99.90;;;;;;5031083;28;20029;-76
2020/12/05 02:48:18;;;;;;;5.18;2.80;;;4.00;99.90;;;;;;5031191;28;20028;-76
2020/12/05 02:50:44;;;;;;;3.17;2.20;;;4.00;99.90;;;;;;5048888;28;20043;-76
2020/12/05 02:53:09;;;;;;;4.68;2.40;;;3.90;99.90;;;;;;5048989;28;20064;-76
2020/12/05 02:55:35;;;;;;;3.55;2.40;;;3.90;99.90;;;;;;5048782;28;20033;-76
2020/12/05 02:58:00;;;;;;;3.33;2.25;;;4.00;99.90;;;;;;5048909;28;20029;-76
2020/12/05 03:00:26;;;;;;;4.43;2.40;;;4.10;99.90;;;;;;5048765;28;20021;-76
2020/12/05 03:02:52;;;;;;;3.88;2.05;;;4.10;99.90;;;;;;5049111;28;20090;-76
2020/12/05 03:05:18;;;;;;;3.75;2.17;;;4.10;99.90;;;;;;5048695;28;20482;-76
2020/12/05 03:07:43;;;;;;;4.57;2.40;;;4.10;99.90;;;;;;5030888;28;20025;-76
2020/12/05 03:10:09;;;;;;;5.38;2.40;;;4.10;99.90;;;;;;5030932;28;20023;-76
2020/12/05 03:12:35;;;;;;;4.22;2.35;;;4.10;99.90;;;;;;5048966;28;20033;-76
2020/12/05 03:15:01;;;;;;;3.60;2.40;;;4.20;99.90;;;;;;5048636;28;20474;-76
2020/12/05 03:17:27;;;;;;;3.17;2.33;;;4.20;99.90;;;;;;5032473;28;20111;-77
2020/12/05 03:19:52;;;;;;;2.67;2.10;;;4.10;99.90;;;;;;5052359;28;20045;-76
2020/12/05 03:22:18;;;;;;;4.22;2.22;;;4.00;99.90;;;;;;5052280;28;20049;-76
2020/12/05 03:24:43;;;;;;;3.42;1.95;;;3.90;99.90;;;;;;5034262;28;20048;-77
2020/12/05 03:27:09;;;;;;;3.50;2.13;;;3.80;99.90;;;;;;5052673;28;20493;-76
2020/12/05 03:29:34;;;;;;;5.28;2.53;;;3.80;99.90;;;;;;5052612;28;20027;-76
2020/12/05 03:32:09;;;;;;;3.90;2.60;;;3.80;99.90;;;;;;5052115;28;20023;-76
2020/12/05 03:34:35;;;;;;;3.80;2.33;;;3.80;99.90;;;;;;5052078;28;20017;-76
2020/12/05 03:37:00;;;;;;;3.58;2.33;;;3.90;99.90;;;;;;5051930;28;20032;-76
2020/12/05 03:39:26;;;;;;;3.20;2.60;;;3.90;99.90;;;;;;5051984;28;20029;-76
2020/12/05 03:41:51;;;;;;;5.35;2.25;;;4.00;99.90;;;;;;5051948;28;20029;-76
2020/12/05 03:44:17;;;;;;;3.67;2.47;;;3.90;99.90;;;;;;5052190;28;20477;-76
2020/12/05 03:46:42;;;;;;;4.85;2.65;;;3.90;99.90;;;;;;5052303;28;20094;-76
2020/12/05 03:49:08;;;;;;;5.40;2.88;;;3.90;99.90;;;;;;5033988;28;20393;-76
2020/12/05 03:51:33;;;;;;;4.25;3.00;;;3.90;99.90;;;;;;5033982;28;20493;-76
2020/12/05 03:53:59;;;;;;;3.42;2.67;;;3.70;99.90;;;;;;5051773;28;20024;-76
2020/12/05 03:56:25;;;;;;;4.88;2.45;;;3.70;99.90;;;;;;5051473;28;20083;-76
2020/12/05 03:58:52;;;;;;;3.47;2.47;;;3.60;99.90;;;;;;5051900;28;20028;-76
2020/12/05 04:01:18;;;;;;;3.53;2.28;;;3.50;99.90;;;;;;5051804;28;20017;-76
2020/12/05 04:03:44;;;;;;;3.47;2.60;;;3.50;99.90;;;;;;5051526;28;20371;-76
2020/12/05 04:06:12;;;;;;;4.85;2.67;;;3.50;99.90;;;;;;5033514;28;20544;-76
2020/12/05 04:08:39;;;;;;;4.45;2.75;;;3.40;99.90;;;;;;5051567;28;20100;-76
2020/12/05 04:11:04;;;;;;;4.95;2.75;;;3.40;99.90;;;;;;5051326;28;20028;-76
2020/12/05 04:13:30;;;;;;;4.13;2.47;;;3.30;99.90;;;;;;5033480;28;20025;-76
2020/12/05 04:15:55;;;;;;;4.28;2.40;;;3.40;99.90;;;;;;5051330;28;20025;-77
2020/12/05 04:18:21;;;;;;;3.85;2.25;;;3.40;99.90;;;;;;5033464;28;20036;-77
2020/12/05 04:20:47;;;;;;;7.40;2.83;;;3.30;99.90;;;;;;5033338;28;20036;-76
2020/12/05 04:23:12;;;;;;;3.47;2.33;;;3.20;99.90;;;;;;5033448;28;20055;-76
2020/12/05 04:25:38;;;;;;;4.15;2.70;;;3.10;99.90;;;;;;5051022;28;20108;-76
2020/12/05 04:28:03;;;;;;;3.08;2.25;;;3.00;99.90;;;;;;5032483;28;20115;-76
2020/12/05 04:30:29;;;;;;;5.60;2.97;;;3.00;99.90;;;;;;5050647;28;20017;-76
2020/12/05 04:32:54;;;;;;;7.20;3.83;;;3.00;99.90;;;;;;5051164;28;20036;-76
2020/12/05 04:35:20;;;;;;;7.47;4.03;;;3.00;99.90;;;;;;5033011;28;20028;-76
2020/12/05 04:37:46;;;;;;;4.90;3.10;;;2.90;99.90;;;;;;5050965;28;20037;-76
2020/12/05 04:40:11;;;;;;;4.63;2.95;;;2.90;99.90;;;;;;5051009;28;20100;-76
2020/12/05 04:42:47;;;;;;;4.47;2.83;;;2.80;99.90;;;;;;5050874;28;20060;-76
2020/12/05 04:45:13;;;;;;;6.93;2.88;;;2.80;99.90;;;;;;5051058;28;20450;-76
2020/12/05 04:47:40;;;;;;;3.63;2.35;;;2.80;99.90;;;;;;5050730;28;20393;-76
2020/12/05 04:50:07;;;;;;;4.28;3.10;;;2.80;99.90;;;;;;5050919;28;20505;-76
2020/12/05 04:52:39;;;;;;;4.38;2.80;;;2.80;99.90;;;;;;5050751;28;20413;-76
2020/12/05 04:55:05;;;;;;;4.20;2.92;;;2.80;99.90;;;;;;5050463;28;20052;-76
2020/12/05 04:57:39;;;;;;;5.45;2.92;;;2.90;99.90;;;;;;5050525;28;20029;-76
2020/12/05 05:00:06;;;;;;;11.20;3.63;;;2.90;99.90;;;;;;5032703;28;20033;-76
2020/12/05 05:02:35;;;;;;;12.45;3.20;;;2.90;99.90;;;;;;5050393;28;20103;-76
2020/12/05 05:05:00;;;;;;;6.72;4.05;;;2.90;99.90;;;;;;5050533;28;20436;-77
2020/12/05 05:07:31;;;;;;;9.65;4.18;;;2.90;99.90;;;;;;5050646;28;20033;-76
2020/12/05 05:10:06;;;;;;;11.77;6.45;;;2.90;99.90;;;;;;5032615;28;20021;-77
2020/12/05 05:12:33;;;;;;;14.70;8.48;;;2.80;99.90;;;;;;5050395;28;20102;-77
2020/12/05 05:14:58;;;;;;;19.83;10.30;;;2.80;99.90;;;;;;5032329;28;20482;-76
2020/12/05 05:17:24;;;;;;;26.00;13.27;;;2.70;99.90;;;;;;5032472;28;20025;-76
2020/12/05 05:19:51;;;;;;;24.23;14.48;;;2.60;99.90;;;;;;5050216;28;20040;-76
2020/12/05 05:22:23;;;;;;;29.08;15.23;;;2.50;99.90;;;;;;5032352;28;20017;-76
2020/12/05 05:25:06;;;;;;;30.40;15.65;;;2.30;99.90;;;;;;5049968;28;20375;-77
2020/12/05 05:27:32;;;;;;;32.60;16.13;;;2.20;99.90;;;;;;5050096;28;20029;-76
2020/12/05 05:30:10;;;;;;;36.58;18.35;;;2.10;99.90;;;;;;5032427;28;20063;-76
2020/12/05 05:32:45;;;;;;;32.58;16.92;;;2.00;99.90;;;;;;5050137;28;20017;-76
2020/12/05 05:35:12;;;;;;;35.22;18.33;;;1.90;99.90;;;;;;5032262;28;20024;-77
2020/12/05 05:37:40;;;;;;;37.47;20.25;;;1.80;99.90;;;;;;5050330;28;20028;-76
2020/12/05 05:40:08;;;;;;;35.88;19.30;;;1.80;99.90;;;;;;5031790;28;20075;-76
2020/12/05 05:42:39;;;;;;;34.13;19.27;;;1.70;99.90;;;;;;5049998;28;20125;-76
2020/12/05 05:45:20;;;;;;;35.53;18.95;;;1.70;99.90;;;;;;5050078;28;20032;-76
2020/12/05 05:47:46;;;;;;;38.75;20.02;;;1.60;99.90;;;;;;5031987;28;20028;-76
2020/12/05 05:50:32;;;;;;;36.72;19.70;;;1.50;99.90;;;;;;5049761;28;20029;-76
2020/12/05 05:53:04;;;;;;;41.65;20.50;;;1.50;99.90;;;;;;5050017;28;20023;-76
2020/12/05 05:55:43;;;;;;;37.83;21.17;;;1.50;99.90;;;;;;5031601;28;20123;-76
2020/12/05 05:58:11;;;;;;;39.75;21.02;;;1.40;99.90;;;;;;5031825;28;20021;-76
2020/12/05 06:00:41;;;;;;;46.42;23.52;;;1.40;99.90;;;;;;5049564;28;20519;-76
2020/12/05 06:03:28;;;;;;;44.38;22.25;;;1.30;99.90;;;;;;5032190;28;20048;-76
2020/12/05 06:05:57;;;;;;;40.55;21.10;;;1.20;99.90;;;;;;5049542;28;20045;-76
2020/12/05 06:08:25;;;;;;;40.30;21.90;;;1.10;99.90;;;;;;5050577;28;20017;-76
2020/12/05 06:11:02;;;;;;;44.47;21.98;;;1.00;99.90;;;;;;5033788;28;20021;-76
2020/12/05 06:13:30;;;;;;;49.03;24.08;;;1.00;99.90;;;;;;5050036;28;20013;-76
2020/12/05 06:15:57;;;;;;;48.75;24.42;;;0.90;99.90;;;;;;5049357;28;20025;-76
2020/12/05 06:18:23;;;;;;;42.85;22.23;;;0.80;99.90;;;;;;5031472;28;20131;-76
2020/12/05 06:20:49;;;;;;;47.72;23.75;;;0.80;99.90;;;;;;5049514;28;20025;-76
2020/12/05 06:23:36;;;;;;;50.10;25.17;;;0.80;99.90;;;;;;5049414;28;20120;-76
2020/12/05 06:26:06;;;;;;;51.47;24.10;;;0.80;99.90;;;;;;5049267;28;20021;-76
2020/12/05 06:28:33;;;;;;;49.03;24.90;;;0.80;99.90;;;;;;5031381;28;20056;-76
2020/12/05 06:30:58;;;;;;;49.10;24.60;;;0.80;99.90;;;;;;5031583;28;20025;-76
2020/12/05 06:33:38;;;;;;;43.15;23.33;;;0.80;99.90;;;;;;5049190;28;20077;-76
2020/12/05 06:36:29;;;;;;;46.05;25.30;;;0.80;99.90;;;;;;5049518;28;20108;-76
2020/12/05 06:39:06;;;;;;;45.45;23.02;;;0.70;99.90;;;;;;5049352;28;20035;-76
2020/12/05 06:41:56;;;;;;;45.47;25.13;;;0.70;99.90;;;;;;5049332;28;20434;-76
2020/12/05 06:44:24;;;;;;;49.78;25.58;;;0.60;99.90;;;;;;5049055;28;20041;-76
2020/12/05 06:46:57;;;;;;;54.67;25.95;;;0.60;99.90;;;;;;5049087;28;20030;-76
2020/12/05 06:49:38;;;;;;;53.50;24.98;;;0.60;99.90;;;;;;5049091;28;20029;-77
2020/12/05 06:52:25;;;;;;;50.65;25.88;;;0.60;99.90;;;;;;5050451;28;20027;-76
2020/12/05 06:55:14;;;;;;;54.35;26.73;;;0.60;99.90;;;;;;5035100;28;20033;-76
2020/12/05 06:57:42;;;;;;;52.97;25.40;;;0.70;99.90;;;;;;5035136;28;20021;-76
2020/12/05 07:00:17;;;;;;;55.17;26.88;;;0.60;99.90;;;;;;5053005;28;20017;-76
2020/12/05 07:02:55;;;;;;;53.88;25.70;;;0.70;99.90;;;;;;5034911;28;20071;-76
2020/12/05 07:05:21;;;;;;;56.85;27.35;;;0.70;99.90;;;;;;5034914;28;20029;-77
2020/12/05 07:07:58;;;;;;;52.78;26.98;;;0.70;99.90;;;;;;5052702;28;20386;-77
2020/12/05 07:10:47;;;;;;;58.78;27.63;;;0.80;99.90;;;;;;5053072;28;20050;-77
2020/12/05 07:13:37;;;;;;;54.30;25.52;;;0.90;99.90;;;;;;5053041;28;20021;-76
2020/12/05 07:16:16;;;;;;;53.85;25.48;;;0.90;99.90;;;;;;5034772;28;20036;-76
2020/12/05 07:18:54;;;;;;;57.03;27.52;;;1.00;99.90;;;;;;5052643;28;20038;-76
2020/12/05 07:21:21;;;;;;;57.80;26.45;;;0.90;99.90;;;;;;5052874;28;20432;-76
2020/12/05 07:23:48;;;;;;;73.10;27.80;;;1.00;99.90;;;;;;5052540;28;20021;-76
2020/12/05 07:26:14;;;;;;;56.15;25.23;;;0.90;99.90;;;;;;5052277;28;20205;-76
2020/12/05 07:28:48;;;;;;;57.63;26.70;;;1.00;99.90;;;;;;5052779;28;20017;-76
2020/12/05 07:31:14;;;;;;;55.72;25.23;;;1.00;99.90;;;;;;5034541;28;20021;-76
2020/12/05 07:33:41;;;;;;;50.55;24.77;;;1.10;99.90;;;;;;5052386;28;20025;-76
2020/12/05 07:36:08;;;;;;;53.15;27.02;;;1.20;99.90;;;;;;5052176;28;20029;-76
2020/12/05 07:38:37;;;;;;;51.10;23.48;;;1.30;99.90;;;;;;5034334;28;20394;-76
2020/12/05 07:41:17;;;;;;;53.80;23.88;;;1.50;99.90;;;;;;5052321;28;20052;-76
2020/12/05 07:43:43;;;;;;;52.20;25.55;;;1.70;99.90;;;;;;5052546;28;20017;-76
2020/12/05 07:46:11;;;;;;;51.97;24.88;;;1.90;99.90;;;;;;5051905;28;20592;-76
2020/12/05 07:48:37;;;;;;;44.10;23.48;;;2.00;99.90;;;;;;5052080;28;20118;-76
2020/12/05 07:51:13;;;;;;;47.72;23.50;;;2.20;99.90;;;;;;5052270;28;20600;-76
2020/12/05 07:53:40;;;;;;;47.38;23.02;;;2.30;99.90;;;;;;5034081;28;20497;-76
2020/12/05 07:56:22;;;;;;;41.80;21.10;;;2.40;99.90;;;;;;5064362;22;20045;-78
2020/12/05 07:58:47;;;;;;;43.10;22.07;;;2.40;99.90;;;;;;5015167;28;20026;-77
2020/12/05 08:01:29;;;;;;;40.97;21.40;;;2.60;99.90;;;;;;5015306;28;20271;-77
2020/12/05 08:04:08;;;;;;;38.80;21.05;;;2.80;99.90;;;;;;5022971;28;20044;-77
2020/12/05 08:06:59;;;;;;;39.92;21.40;;;2.90;99.90;;;;;;5040194;28;20112;-77
2020/12/05 08:09:33;;;;;;;40.92;21.42;;;2.90;99.90;;;;;;5041060;28;20394;-77
2020/12/05 08:11:59;;;;;;;41.92;21.63;;;2.80;99.90;;;;;;5036609;28;20014;-77
2020/12/05 08:14:27;;;;;;;41.10;21.92;;;2.90;99.90;;;;;;5015802;28;20025;-77
2020/12/05 08:16:56;;;;;;;42.83;20.98;;;2.80;99.90;;;;;;5033194;28;20021;-77
2020/12/05 08:19:22;;;;;;;40.95;22.85;;;2.70;99.90;;;;;;5032701;28;20394;-77
2020/12/05 08:21:48;;;;;;;39.88;20.80;;;2.70;99.90;;;;;;5015331;28;20505;-77
2020/12/05 08:24:14;;;;;;;43.22;21.60;;;2.80;99.90;;;;;;5015270;28;20026;-77
2020/12/05 08:26:40;;;;;;;43.47;21.92;;;2.80;99.90;;;;;;5032960;28;20032;-77
2020/12/05 08:29:07;;;;;;;41.92;22.08;;;2.80;99.90;;;;;;5036124;28;20021;-77
2020/12/05 08:31:41;;;;;;;46.55;23.05;;;2.90;99.90;;;;;;5017063;28;20121;-77
2020/12/05 08:34:06;;;;;;;41.83;23.75;;;3.00;99.90;;;;;;5015829;28;20022;-77
2020/12/05 08:36:40;;;;;;;40.28;22.15;;;3.30;99.90;;;;;;5034274;28;20504;-77
2020/12/05 08:39:12;;;;;;;40.03;20.55;;;3.60;99.90;;;;;;5015596;28;20026;-77
2020/12/05 08:41:48;;;;;;;47.67;18.67;;;4.30;99.90;;;;;;5014324;28;20053;-77
2020/12/05 08:44:15;;;;;;;32.83;18.13;;;5.20;99.90;;;;;;5013862;28;20155;-77
2020/12/05 08:46:42;;;;;;;31.58;18.35;;;5.80;99.90;;;;;;5031666;28;20472;-77
2020/12/05 08:49:19;;;;;;;29.95;18.13;;;6.40;99.90;;;;;;5031658;28;20025;-76
2020/12/05 08:51:51;;;;;;;29.02;17.02;;;6.80;99.90;;;;;;5031481;28;20475;-77
2020/12/05 08:54:16;;;;;;;31.63;18.83;;;6.70;99.90;;;;;;5031393;28;20029;-77
2020/12/05 08:56:43;;;;;;;30.15;18.60;;;6.50;99.90;;;;;;5012617;28;20033;-77
2020/12/05 08:59:09;;;;;;;34.17;19.73;;;6.80;99.90;;;;;;5030618;28;20025;-76
2020/12/05 09:01:40;;;;;;;28.35;17.33;;;6.90;99.90;;;;;;5030549;28;20414;-77
2020/12/05 09:04:06;;;;;;;30.35;18.00;;;6.80;99.90;;;;;;5030593;28;20083;-77
2020/12/05 09:06:32;;;;;;;30.40;18.27;;;6.50;99.90;;;;;;5012548;28;20460;-77
2020/12/05 09:08:58;;;;;;;33.60;20.08;;;6.20;99.90;;;;;;5012614;28;20021;-77
2020/12/05 09:11:24;;;;;;;33.10;19.15;;;5.70;99.90;;;;;;5012677;28;20029;-77
2020/12/05 09:13:51;;;;;;;37.85;21.30;;;5.50;99.90;;;;;;5030246;28;20076;-77
2020/12/05 09:16:17;;;;;;;40.58;21.80;;;5.30;99.90;;;;;;5029741;28;20025;-77
2020/12/05 09:18:48;;;;;;;35.72;20.60;;;5.10;99.90;;;;;;5030533;28;20029;-77
2020/12/05 09:21:22;;;;;;;37.90;22.08;;;5.00;99.90;;;;;;5012629;28;20060;-77
2020/12/05 09:24:01;;;;;;;38.30;21.70;;;4.80;99.90;;;;;;5030254;28;20065;-77
2020/12/05 09:26:27;;;;;;;39.92;22.30;;;4.80;99.90;;;;;;5012239;28;20028;-76
2020/12/05 09:28:53;;;;;;;39.10;21.05;;;4.80;99.90;;;;;;5012300;28;20067;-76
2020/12/05 09:31:19;;;;;;;38.92;21.00;;;4.80;99.90;;;;;;5029964;28;20018;-77
2020/12/05 09:33:45;;;;;;;35.75;20.20;;;4.90;99.90;;;;;;5012154;28;20390;-77
2020/12/05 09:36:11;;;;;;;40.70;22.55;;;4.90;99.90;;;;;;5012406;28;20025;-76
2020/12/05 09:38:36;;;;;;;41.75;23.55;;;5.00;99.90;;;;;;5030013;28;20032;-76
2020/12/05 09:41:02;;;;;;;38.25;20.33;;;5.00;99.90;;;;;;5029786;28;20063;-76
2020/12/05 09:43:27;;;;;;;42.50;23.38;;;5.00;99.90;;;;;;5012083;28;20038;-76
2020/12/05 09:45:53;;;;;;;45.38;24.25;;;5.00;99.90;;;;;;5011998;28;20022;-76
2020/12/05 09:48:19;;;;;;;47.47;25.45;;;5.10;99.90;;;;;;5012028;28;20025;-76
2020/12/05 09:50:44;;;;;;;40.55;22.35;;;6.40;99.90;;;;;;5012044;28;20031;-77
2020/12/05 09:53:10;;;;;;;46.10;23.52;;;9.00;99.90;;;;;;5029699;28;20026;-77
2020/12/05 09:55:35;;;;;;;37.85;21.92;;;13.00;99.90;;;;;;5011654;28;20040;-77
2020/12/05 09:58:01;;;;;;;34.13;21.10;;;16.10;77.00;;;;;;5029482;28;20470;-77
2020/12/05 10:00:27;;;;;;;31.40;20.40;;;19.10;58.90;;;;;;5012076;28;20052;-77
2020/12/05 10:02:52;;;;;;;33.47;22.98;;;20.10;50.90;;;;;;5030726;28;20474;-77
2020/12/05 10:05:18;;;;;;;29.92;19.88;;;19.00;51.40;;;;;;5012947;28;20029;-77
2020/12/05 10:07:44;;;;;;;38.15;24.55;;;17.00;56.10;;;;;;5012697;28;20022;-76
2020/12/05 10:10:11;;;;;;;31.60;21.73;;;15.20;60.50;;;;;;5013259;28;20457;-77
2020/12/05 10:12:36;;;;;;;29.50;21.25;;;13.40;67.30;;;;;;5012036;28;20505;-77
2020/12/05 10:15:04;;;;;;;35.65;23.60;;;12.20;73.30;;;;;;5029463;28;20026;-77
2020/12/05 10:17:30;;;;;;;38.22;25.27;;;11.00;79.80;;;;;;5012380;28;20036;-77
2020/12/05 10:19:55;;;;;;;31.10;20.27;;;10.30;87.10;;;;;;5029745;28;20025;-77
2020/12/05 10:22:21;;;;;;;28.52;18.98;;;9.90;91.60;;;;;;5029571;28;20423;-77
2020/12/05 10:24:47;;;;;;;36.30;22.20;;;9.40;95.30;;;;;;5030464;28;20026;-77
2020/12/05 10:27:13;;;;;;;34.60;21.23;;;8.90;99.70;;;;;;5015400;28;20044;-77
2020/12/05 10:29:38;;;;;;;29.95;19.42;;;8.40;99.90;;;;;;5016287;28;20025;-76
2020/12/05 10:32:04;;;;;;;35.05;21.38;;;8.20;99.90;;;;;;5015839;28;20053;-76
2020/12/05 10:34:29;;;;;;;35.03;20.10;;;8.40;99.90;;;;;;5015746;28;20052;-76
2020/12/05 10:36:55;;;;;;;53.65;27.05;;;10.80;99.90;;;;;;5034045;28;20033;-77
2020/12/05 10:39:21;;;;;;;29.90;19.42;;;14.40;85.60;;;;;;5015958;28;20124;-76
2020/12/05 10:41:49;;;;;;;26.42;17.50;;;16.30;70.80;;;;;;5016462;28;20025;-79
2020/12/05 10:44:14;;;;;;;23.83;18.40;;;18.30;57.90;;;;;;5033340;28;20372;-77
2020/12/05 10:46:45;;;;;;;23.63;17.67;;;18.20;55.60;;;;;;5016432;28;20501;-78
2020/12/05 10:49:11;;;;;;;21.60;16.83;;;17.00;56.40;;;;;;5015587;28;20045;-77
2020/12/05 10:51:37;;;;;;;24.83;17.90;;;15.30;60.20;;;;;;5015758;28;20493;-75
2020/12/05 10:54:04;;;;;;;23.98;17.35;;;13.70;65.70;;;;;;5033406;28;20026;-76
2020/12/05 10:56:30;;;;;;;24.50;18.30;;;12.50;71.90;;;;;;5033446;28;20045;-76
2020/12/05 10:58:56;;;;;;;26.73;18.30;;;11.60;75.70;;;;;;5015642;28;20474;-76
2020/12/05 11:01:21;;;;;;;28.55;18.90;;;10.80;81.00;;;;;;5015182;28;20399;-75
2020/12/05 11:03:47;;;;;;;28.60;18.33;;;10.10;86.60;;;;;;5015062;28;20036;-75
2020/12/05 11:06:19;;;;;;;27.00;18.88;;;9.40;91.90;;;;;;5032891;28;20025;-76
2020/12/05 11:08:44;;;;;;;26.40;18.13;;;9.00;95.40;;;;;;5015141;28;20112;-75
2020/12/05 11:11:10;;;;;;;25.25;17.05;;;8.70;99.00;;;;;;5032770;28;20057;-75
2020/12/05 11:13:35;;;;;;;26.67;17.00;;;8.60;99.90;;;;;;5032946;28;20021;-75
2020/12/05 11:16:01;;;;;;;29.98;18.25;;;8.50;99.90;;;;;;5033461;28;20031;-75
2020/12/05 11:18:26;;;;;;;28.40;17.73;;;8.30;99.90;;;;;;5032704;28;20029;-76
2020/12/05 11:20:52;;;;;;;26.35;17.33;;;8.30;99.90;;;;;;5014831;28;20402;-76
2020/12/05 11:23:17;;;;;;;29.10;17.98;;;8.30;99.90;;;;;;5032462;28;20025;-75
2020/12/05 11:25:43;;;;;;;29.40;17.75;;;8.60;99.90;;;;;;5014567;28;20053;-75
2020/12/05 11:28:08;;;;;;;24.85;17.17;;;9.30;99.90;;;;;;5032302;28;20021;-75
2020/12/05 11:30:34;;;;;;;28.38;16.90;;;10.90;99.90;;;;;;5014779;28;20138;-75
2020/12/05 11:33:00;;;;;;;22.98;16.40;;;13.10;93.50;;;;;;5014599;28;20125;-75
2020/12/05 11:35:25;;;;;;;26.88;17.45;;;14.70;79.90;;;;;;5032204;28;20398;-76
2020/12/05 11:37:51;;;;;;;26.83;18.25;;;15.00;72.50;;;;;;5031607;28;20025;-77
2020/12/05 11:40:16;;;;;;;22.80;16.30;;;15.00;71.90;;;;;;5032176;28;20489;-76
2020/12/05 11:42:42;;;;;;;21.35;15.57;;;16.00;68.10;;;;;;5014247;28;20045;-76
2020/12/05 11:45:07;;;;;;;20.73;15.02;;;17.90;59.70;;;;;;5031805;28;20041;-76
2020/12/05 11:47:33;;;;;;;19.80;15.27;;;19.40;55.40;;;;;;5031974;28;20029;-76
2020/12/05 11:49:58;;;;;;;18.75;14.68;;;19.70;51.20;;;;;;5014289;28;20026;-76
2020/12/05 11:52:24;;;;;;;21.63;14.88;;;19.10;52.20;;;;;;5014575;28;20026;-76
2020/12/05 11:54:49;;;;;;;17.08;14.65;;;18.80;52.50;;;;;;5014469;28;20029;-76
2020/12/05 11:57:15;;;;;;;20.23;15.80;;;18.80;52.00;;;;;;5032189;28;20022;-76
2020/12/05 11:59:41;;;;;;;20.15;15.45;;;17.70;53.20;;;;;;5014059;28;20026;-76
2020/12/05 12:02:07;;;;;;;21.10;16.45;;;16.40;56.80;;;;;;5014058;28;20026;-76
2020/12/05 12:04:34;;;;;;;23.08;17.67;;;15.80;58.30;;;;;;5013941;28;20017;-76
2020/12/05 12:06:59;;;;;;;18.63;14.95;;;16.30;58.00;;;;;;5013768;28;20121;-76
2020/12/05 12:09:25;;;;;;;17.75;12.57;;;17.70;55.70;;;;;;5013950;28;20044;-76
2020/12/05 12:11:50;;;;;;;16.73;13.65;;;19.10;52.50;;;;;;5014049;28;20017;-76
2020/12/05 12:14:16;;;;;;;17.80;14.20;;;19.80;49.20;;;;;;5031526;28;20364;-77
2020/12/05 12:16:41;;;;;;;16.17;13.85;;;19.60;49.60;;;;;;5013830;28;20104;-76
2020/12/05 12:19:07;;;;;;;15.95;12.75;;;18.90;49.50;;;;;;5014178;28;20040;-76
2020/12/05 12:21:32;;;;;;;18.70;14.77;;;18.10;51.60;;;;;;5013748;28;20029;-76
2020/12/05 12:23:58;;;;;;;16.20;13.52;;;17.60;52.70;;;;;;5031843;28;20534;-76
2020/12/05 12:26:30;;;;;;;17.02;14.02;;;17.40;53.10;;;;;;5013477;28;20040;-76
2020/12/05 12:28:56;;;;;;;18.15;13.90;;;17.30;53.50;;;;;;5014100;28;20433;-77
2020/12/05 12:31:22;;;;;;;16.30;12.27;;;16.90;54.50;;;;;;5014134;28;20082;-76
2020/12/05 12:33:47;;;;;;;16.30;12.82;;;15.80;56.30;;;;;;5031833;28;20030;-76
2020/12/05 12:36:21;;;;;;;17.48;13.77;;;14.60;59.20;;;;;;5031948;28;20395;-76
2020/12/05 12:38:47;;;;;;;15.77;12.32;;;13.80;61.80;;;;;;5031327;28;20029;-75
2020/12/05 12:41:17;;;;;;;17.38;12.43;;;13.00;65.00;;;;;;5013520;28;20053;-75
2020/12/05 12:43:44;;;;;;;16.33;12.68;;;12.40;68.10;;;;;;5031012;28;20033;-75